Terminal Aerodrome Forecast
Issued by NWS

Home | Current Version | Previous Version | Graphics & Text | Print | Product List | Glossary On
Versions: 1 2 3 4 5 6 7 8 9 10 11 12 13 14 15
000
FTUS43 KMPX 182337
TAFRWF
TAF
KRWF 182337Z 1900/1924 15004KT P6SM BKN250
     FM191400 14009KT P6SM BKN200
     FM192000 15012G19KT P6SM BKN150=

USA.gov is the U.S. government's official web portal to all federal, state and local government web resources and services.